Time;durP1;ratioP1;P1;durP2;ratioP2;P2;SDS_P1;SDS_P2;PMS_P1;PMS_P2;Temp;Humidity;BMP_temperature;BMP_pressure;BME280_temperature;BME280_humidity;BME280_pressure;Samples;Min_cycle;Max_cycle;Signal;HPM_P1;HPM_P2
2022/02/23 00:01:05;;;;;;;4.28;1.92;;;5.50;99.90;;;;;;5070349;28;20029;-72
2022/02/23 00:03:31;;;;;;;12.40;2.45;;;5.50;99.90;;;;;;5067309;28;20021;-75
2022/02/23 00:05:56;;;;;;;9.13;2.60;;;5.50;99.90;;;;;;5066606;28;20483;-72
2022/02/23 00:08:22;;;;;;;22.67;3.92;;;5.50;99.90;;;;;;5066783;28;20047;-72
2022/02/23 00:10:47;;;;;;;9.80;2.20;;;5.50;99.90;;;;;;5066862;28;20033;-73
2022/02/23 00:13:13;;;;;;;26.85;2.85;;;5.50;99.90;;;;;;5066675;28;20029;-70
2022/02/23 00:15:39;;;;;;;3.90;1.58;;;5.60;99.90;;;;;;5066708;28;20036;-72
2022/02/23 00:18:12;;;;;;;15.15;3.25;;;5.60;99.90;;;;;;5066768;28;20029;-72
2022/02/23 00:20:39;;;;;;;16.40;2.40;;;5.60;99.90;;;;;;5077832;28;20025;-74
2022/02/23 00:23:04;;;;;;;17.55;3.38;;;5.60;99.90;;;;;;5086653;28;20032;-72
2022/02/23 00:25:30;;;;;;;8.48;2.42;;;5.60;99.90;;;;;;5086761;28;20070;-73
2022/02/23 00:27:56;;;;;;;12.90;1.95;;;5.70;99.90;;;;;;5086484;28;20029;-72
2022/02/23 00:30:22;;;;;;;15.10;2.08;;;5.70;99.90;;;;;;5086892;28;20024;-72
2022/02/23 00:32:47;;;;;;;13.88;2.83;;;5.70;99.90;;;;;;5086291;28;20103;-75
2022/02/23 00:35:13;;;;;;;11.75;3.58;;;5.60;99.90;;;;;;5086218;28;20024;-71
2022/02/23 00:37:39;;;;;;;15.63;3.20;;;5.60;99.90;;;;;;5086538;28;20071;-72
2022/02/23 00:40:05;;;;;;;33.88;4.80;;;5.60;99.90;;;;;;5076119;28;20115;-72
2022/02/23 00:42:30;;;;;;;23.25;2.30;;;5.60;99.90;;;;;;5066260;28;20031;-71
2022/02/23 00:44:56;;;;;;;23.85;2.70;;;5.50;99.90;;;;;;5066652;28;20068;-71
2022/02/23 00:47:22;;;;;;;23.48;3.38;;;5.50;99.90;;;;;;5066290;28;20032;-72
2022/02/23 00:49:47;;;;;;;5.80;2.15;;;5.50;99.90;;;;;;5073676;28;20136;-72
2022/02/23 00:52:13;;;;;;;10.13;1.88;;;5.50;99.90;;;;;;5086400;28;20024;-70
2022/02/23 00:54:40;;;;;;;8.73;2.00;;;5.50;99.90;;;;;;5085699;28;20036;-71
2022/02/23 00:57:06;;;;;;;31.83;2.67;;;5.50;99.90;;;;;;5085803;28;20032;-73
2022/02/23 00:59:32;;;;;;;7.05;1.40;;;5.40;99.90;;;;;;5086016;28;20113;-75
2022/02/23 01:01:57;;;;;;;14.43;3.58;;;5.40;99.90;;;;;;5086090;28;20084;-72
2022/02/23 01:04:23;;;;;;;14.55;2.28;;;5.40;99.90;;;;;;5084922;28;20147;-70
2022/02/23 01:06:50;;;;;;;23.88;5.15;;;5.40;99.90;;;;;;5085675;28;20388;-72
2022/02/23 01:09:15;;;;;;;15.32;3.50;;;5.40;99.90;;;;;;5085421;28;20051;-74
2022/02/23 01:11:41;;;;;;;10.15;2.50;;;5.40;99.90;;;;;;5084153;28;20035;-72
2022/02/23 01:14:08;;;;;;;6.95;1.73;;;5.40;99.90;;;;;;5084355;28;20032;-71
2022/02/23 01:16:34;;;;;;;12.00;2.25;;;5.40;99.90;;;;;;5083473;28;20070;-72
2022/02/23 01:18:59;;;;;;;20.05;2.72;;;5.30;99.90;;;;;;5085873;28;20059;-73
2022/02/23 01:21:32;;;;;;;7.43;2.50;;;5.30;99.90;;;;;;5085693;28;20020;-72
2022/02/23 01:23:58;;;;;;;9.90;2.25;;;5.30;99.90;;;;;;5084234;28;20025;-72
2022/02/23 01:26:24;;;;;;;5.28;1.85;;;5.40;99.90;;;;;;5085764;28;20035;-73
2022/02/23 01:28:50;;;;;;;29.30;4.18;;;5.30;99.90;;;;;;5085518;28;20056;-72
2022/02/23 01:31:16;;;;;;;22.98;2.65;;;5.30;99.90;;;;;;5085128;28;20024;-72
2022/02/23 01:33:42;;;;;;;19.27;2.63;;;5.30;99.90;;;;;;5085565;28;20404;-74
2022/02/23 01:36:08;;;;;;;17.48;2.00;;;5.30;99.90;;;;;;5085408;28;20024;-71
2022/02/23 01:38:34;;;;;;;20.92;1.67;;;5.30;99.90;;;;;;5085885;28;20511;-74
2022/02/23 01:41:13;;;;;;;22.83;3.35;;;5.20;99.90;;;;;;5084435;28;20044;-71
2022/02/23 01:43:39;;;;;;;19.45;2.40;;;5.30;99.90;;;;;;5084951;28;20027;-71
2022/02/23 01:46:05;;;;;;;7.75;1.63;;;5.30;99.90;;;;;;5084033;28;20096;-71
2022/02/23 01:48:30;;;;;;;23.80;3.72;;;5.30;99.90;;;;;;5085540;28;20028;-73
2022/02/23 01:50:57;;;;;;;22.25;3.03;;;5.40;99.90;;;;;;5084852;28;20036;-73
2022/02/23 01:53:22;;;;;;;15.50;3.50;;;5.40;99.90;;;;;;5084968;28;20083;-72
2022/02/23 01:55:48;;;;;;;12.43;2.13;;;5.40;99.90;;;;;;5083878;28;20025;-72
2022/02/23 01:58:13;;;;;;;7.55;3.17;;;5.40;99.90;;;;;;5083381;28;20026;-74
2022/02/23 02:00:39;;;;;;;34.25;3.83;;;5.40;99.90;;;;;;5084642;28;20020;-72
2022/02/23 02:03:05;;;;;;;29.58;2.63;;;5.40;99.90;;;;;;5084968;28;20048;-74
2022/02/23 02:05:31;;;;;;;21.40;3.55;;;5.50;99.90;;;;;;5084448;28;20476;-74
2022/02/23 02:07:56;;;;;;;10.10;2.40;;;5.50;99.90;;;;;;5072029;28;20037;-75
2022/02/23 02:10:22;;;;;;;13.05;1.98;;;5.60;99.90;;;;;;5063625;28;20048;-73
2022/02/23 02:12:48;;;;;;;11.10;2.35;;;5.60;99.90;;;;;;5071397;28;20036;-71
2022/02/23 02:15:13;;;;;;;6.18;1.98;;;5.60;99.90;;;;;;5084794;28;20028;-71
2022/02/23 02:17:41;;;;;;;18.23;3.17;;;5.60;99.90;;;;;;5083480;28;20029;-72
2022/02/23 02:20:08;;;;;;;8.90;2.45;;;5.60;99.90;;;;;;5082792;28;20457;-73
2022/02/23 02:22:33;;;;;;;14.52;3.55;;;5.60;99.90;;;;;;5076322;28;20036;-74
2022/02/23 02:25:00;;;;;;;18.13;2.17;;;5.60;99.90;;;;;;5064369;28;20037;-72
2022/02/23 02:27:26;;;;;;;15.65;2.65;;;5.60;99.90;;;;;;5062852;28;20028;-72
2022/02/23 02:29:52;;;;;;;4.80;1.40;;;5.70;99.90;;;;;;5064819;28;20138;-73
2022/02/23 02:32:17;;;;;;;5.93;1.92;;;5.70;99.90;;;;;;5063004;28;20758;-71
2022/02/23 02:34:44;;;;;;;18.52;2.40;;;5.70;99.90;;;;;;5064342;28;20050;-72
2022/02/23 02:37:10;;;;;;;20.50;2.92;;;5.70;99.90;;;;;;5061307;28;20496;-71
2022/02/23 02:39:36;;;;;;;15.70;3.25;;;5.70;99.90;;;;;;5064341;28;20037;-71
2022/02/23 02:42:02;;;;;;;12.07;2.42;;;5.70;99.90;;;;;;5063897;28;20036;-70
2022/02/23 02:44:28;;;;;;;21.75;3.30;;;5.70;99.90;;;;;;5064643;28;20029;-69
2022/02/23 02:46:57;;;;;;;12.10;2.10;;;5.70;99.90;;;;;;5064883;28;20025;-70
2022/02/23 02:49:22;;;;;;;7.00;1.65;;;5.70;99.90;;;;;;5062808;28;20029;-70
2022/02/23 02:51:48;;;;;;;16.92;2.80;;;5.70;99.90;;;;;;5064259;28;20035;-69
2022/02/23 02:54:14;;;;;;;9.73;2.45;;;5.70;99.90;;;;;;5049214;28;20037;-71
2022/02/23 02:56:40;;;;;;;6.90;1.67;;;5.70;99.90;;;;;;5043974;28;20041;-72
2022/02/23 02:59:07;;;;;;;31.95;3.53;;;5.70;99.90;;;;;;5044342;28;20030;-69
2022/02/23 03:01:34;;;;;;;9.88;3.35;;;5.60;99.90;;;;;;5044390;28;20037;-73
2022/02/23 03:04:00;;;;;;;10.75;1.85;;;5.60;99.90;;;;;;5044064;28;20029;-70
2022/02/23 03:06:27;;;;;;;17.02;2.05;;;5.60;99.90;;;;;;5044589;28;20053;-70
2022/02/23 03:08:54;;;;;;;7.05;2.30;;;5.60;99.90;;;;;;5044329;28;20030;-69
2022/02/23 03:11:20;;;;;;;9.93;2.55;;;5.50;99.90;;;;;;5043926;28;20033;-71
2022/02/23 03:13:47;;;;;;;22.70;2.67;;;5.50;99.90;;;;;;5044257;28;20037;-70
2022/02/23 03:16:14;;;;;;;13.57;2.45;;;5.40;99.90;;;;;;5042498;28;20450;-70
2022/02/23 03:18:41;;;;;;;11.05;2.50;;;5.40;99.90;;;;;;5042558;28;20026;-69
2022/02/23 03:21:08;;;;;;;15.02;2.83;;;5.40;99.90;;;;;;5044124;28;20116;-71
2022/02/23 03:23:35;;;;;;;11.77;2.03;;;5.30;99.90;;;;;;5045145;28;20030;-72
2022/02/23 03:26:01;;;;;;;12.38;2.05;;;5.20;99.90;;;;;;5043725;28;20037;-71
2022/02/23 03:28:27;;;;;;;16.73;2.63;;;5.30;99.90;;;;;;5042896;28;20522;-71
2022/02/23 03:30:53;;;;;;;16.67;1.88;;;5.30;99.90;;;;;;5043802;28;20057;-70
2022/02/23 03:33:19;;;;;;;18.08;2.83;;;5.20;99.90;;;;;;5043655;28;20420;-71
2022/02/23 03:35:46;;;;;;;12.57;2.05;;;5.20;99.90;;;;;;5043930;28;20034;-71
2022/02/23 03:38:12;;;;;;;20.60;3.50;;;5.30;99.90;;;;;;5043762;28;20041;-71
2022/02/23 03:40:38;;;;;;;16.52;3.03;;;5.30;99.90;;;;;;5046306;28;20075;-70
2022/02/23 03:43:05;;;;;;;16.65;2.30;;;5.30;99.90;;;;;;5046766;28;20033;-70
2022/02/23 03:45:31;;;;;;;4.22;1.42;;;5.40;99.90;;;;;;5047332;28;20034;-71
2022/02/23 03:47:57;;;;;;;12.18;2.00;;;5.40;99.90;;;;;;5047455;28;20041;-72
2022/02/23 03:50:23;;;;;;;14.35;2.83;;;5.30;99.90;;;;;;5047507;28;20034;-72
2022/02/23 03:52:49;;;;;;;13.18;3.20;;;5.30;99.90;;;;;;5045726;28;20128;-73
2022/02/23 03:55:15;;;;;;;16.52;3.13;;;5.40;99.90;;;;;;5047316;28;20424;-69
2022/02/23 03:57:41;;;;;;;11.02;2.88;;;5.40;99.90;;;;;;5047118;28;20158;-72
2022/02/23 04:00:11;;;;;;;8.90;2.20;;;5.40;99.90;;;;;;5047022;28;20033;-72
2022/02/23 04:02:37;;;;;;;11.88;2.30;;;5.40;99.90;;;;;;5047291;28;20037;-71
2022/02/23 04:05:04;;;;;;;17.25;2.38;;;5.40;99.90;;;;;;5045798;28;20049;-71
2022/02/23 04:07:30;;;;;;;4.50;1.63;;;5.40;99.90;;;;;;5046712;28;20025;-71
2022/02/23 04:09:57;;;;;;;11.77;2.15;;;5.50;99.90;;;;;;5045858;28;20042;-73
2022/02/23 04:12:24;;;;;;;16.55;2.70;;;5.40;99.90;;;;;;5045507;28;20049;-72
2022/02/23 04:14:50;;;;;;;12.45;3.08;;;5.40;99.90;;;;;;5047015;28;20594;-72
2022/02/23 04:17:16;;;;;;;19.60;3.55;;;5.40;99.90;;;;;;5045550;28;20029;-71
2022/02/23 04:19:41;;;;;;;9.50;2.65;;;5.40;99.90;;;;;;5046558;28;20037;-71
2022/02/23 04:22:07;;;;;;;23.98;2.13;;;5.40;99.90;;;;;;5046698;28;20033;-73
2022/02/23 04:24:33;;;;;;;11.38;1.65;;;5.40;99.90;;;;;;5046616;28;20038;-72
2022/02/23 04:27:00;;;;;;;5.63;1.45;;;5.40;99.90;;;;;;5046489;28;20053;-71
2022/02/23 04:29:30;;;;;;;11.20;2.80;;;5.40;99.90;;;;;;5045580;28;20466;-75
2022/02/23 04:32:00;;;;;;;11.90;2.50;;;5.40;99.90;;;;;;5046544;28;20053;-73
2022/02/23 04:34:27;;;;;;;13.45;2.15;;;5.40;99.90;;;;;;5045277;28;20094;-74
2022/02/23 04:36:53;;;;;;;9.15;2.90;;;5.40;99.90;;;;;;5046930;28;20033;-73
2022/02/23 04:39:19;;;;;;;7.95;2.22;;;5.40;99.90;;;;;;5046182;28;21300;-73
2022/02/23 04:41:48;;;;;;;14.30;2.22;;;5.40;99.90;;;;;;5046398;28;20021;-73
2022/02/23 04:44:19;;;;;;;10.27;2.50;;;5.40;99.90;;;;;;5046272;28;20069;-72
2022/02/23 04:46:45;;;;;;;15.93;1.35;;;5.30;99.90;;;;;;5046067;28;20079;-73
2022/02/23 04:49:10;;;;;;;13.05;1.90;;;5.30;99.90;;;;;;5046320;28;20069;-73
2022/02/23 04:51:38;;;;;;;11.25;2.85;;;5.30;99.90;;;;;;5044889;28;20033;-72
2022/02/23 04:54:03;;;;;;;8.13;1.90;;;5.30;99.90;;;;;;5044472;28;20076;-71
2022/02/23 04:56:30;;;;;;;23.92;4.22;;;5.30;99.90;;;;;;5046446;28;20025;-71
2022/02/23 04:58:56;;;;;;;6.95;2.30;;;5.30;99.90;;;;;;5046171;28;20025;-70
2022/02/23 05:01:22;;;;;;;14.57;3.17;;;5.30;99.90;;;;;;5045957;28;20055;-73
2022/02/23 05:03:47;;;;;;;23.35;3.38;;;5.30;99.90;;;;;;5046017;28;20061;-72
2022/02/23 05:06:13;;;;;;;13.88;1.83;;;5.30;99.90;;;;;;5045956;28;20051;-73
2022/02/23 05:08:39;;;;;;;15.95;2.65;;;5.20;99.90;;;;;;5045571;28;20041;-72
2022/02/23 05:11:05;;;;;;;2.25;1.42;;;5.20;99.90;;;;;;5045796;28;20029;-70
2022/02/23 05:13:31;;;;;;;7.97;2.10;;;5.30;99.90;;;;;;5045903;28;20037;-72
2022/02/23 05:15:59;;;;;;;22.40;2.47;;;5.30;99.90;;;;;;5044463;28;20496;-71
2022/02/23 05:18:27;;;;;;;16.30;2.10;;;5.30;99.90;;;;;;5046111;28;20025;-73
2022/02/23 05:20:57;;;;;;;19.08;2.63;;;5.30;99.90;;;;;;5045929;28;20033;-70
2022/02/23 05:23:24;;;;;;;14.32;2.38;;;5.30;99.90;;;;;;5043882;28;20041;-73
2022/02/23 05:25:51;;;;;;;5.72;1.55;;;5.30;99.90;;;;;;5045755;28;20437;-72
2022/02/23 05:28:18;;;;;;;15.90;2.40;;;5.30;99.90;;;;;;5045384;28;20073;-70
2022/02/23 05:30:43;;;;;;;6.72;1.58;;;5.20;99.90;;;;;;5045341;28;20067;-72
2022/02/23 05:33:09;;;;;;;21.52;2.90;;;5.20;99.90;;;;;;5045170;28;20058;-72
2022/02/23 05:35:35;;;;;;;17.05;2.33;;;5.20;99.90;;;;;;5045389;28;20017;-71
2022/02/23 05:38:01;;;;;;;3.97;1.00;;;5.20;99.90;;;;;;5045087;28;20075;-74
2022/02/23 05:40:27;;;;;;;14.10;2.45;;;5.20;99.90;;;;;;5045603;28;20385;-72
2022/02/23 05:42:57;;;;;;;15.07;2.50;;;5.20;99.90;;;;;;5044317;28;20025;-71
2022/02/23 05:45:22;;;;;;;7.28;1.48;;;5.10;99.90;;;;;;5045568;28;20029;-70
2022/02/23 05:47:48;;;;;;;19.33;2.58;;;5.00;99.90;;;;;;5045415;28;20024;-70
2022/02/23 05:50:14;;;;;;;10.90;2.20;;;5.00;99.90;;;;;;5045051;28;20025;-71
2022/02/23 05:52:40;;;;;;;15.88;2.72;;;4.90;99.90;;;;;;5045267;28;20041;-71
2022/02/23 05:55:06;;;;;;;10.23;2.05;;;4.80;99.90;;;;;;5045106;28;20037;-70
2022/02/23 05:57:33;;;;;;;7.50;0.70;;;4.80;99.90;;;;;;5043485;28;20032;-73
2022/02/23 05:59:59;;;;;;;13.40;2.53;;;4.80;99.90;;;;;;5045161;28;20029;-74
2022/02/23 06:02:29;;;;;;;9.70;2.50;;;4.70;99.90;;;;;;5044854;28;20026;-72
2022/02/23 06:04:56;;;;;;;21.42;2.72;;;4.70;99.90;;;;;;5043563;28;20048;-71
2022/02/23 06:07:22;;;;;;;11.60;2.80;;;4.70;99.90;;;;;;5073302;28;20090;-71
2022/02/23 06:09:47;;;;;;;7.22;1.92;;;4.60;99.90;;;;;;5084900;28;20033;-72
2022/02/23 06:12:13;;;;;;;4.90;2.40;;;4.60;99.90;;;;;;5084779;28;20063;-71
2022/02/23 06:14:38;;;;;;;5.07;1.60;;;4.50;99.90;;;;;;5081457;28;20038;-71
2022/02/23 06:17:04;;;;;;;4.07;1.45;;;4.50;99.90;;;;;;5064696;28;20027;-73
2022/02/23 06:19:30;;;;;;;15.18;2.20;;;4.50;99.90;;;;;;5063456;28;20020;-73
2022/02/23 06:21:56;;;;;;;15.77;2.63;;;4.50;99.90;;;;;;5064828;28;20021;-73
2022/02/23 06:24:22;;;;;;;12.05;1.73;;;4.50;99.90;;;;;;5065078;28;20166;-72
2022/02/23 06:26:48;;;;;;;6.75;0.98;;;4.50;99.90;;;;;;5062982;28;20045;-73
2022/02/23 06:29:13;;;;;;;7.13;2.38;;;4.50;99.90;;;;;;5064781;28;20547;-71
2022/02/23 06:31:39;;;;;;;26.92;3.80;;;4.50;99.90;;;;;;5063936;28;20523;-70
2022/02/23 06:34:04;;;;;;;11.60;2.85;;;4.40;99.90;;;;;;5064418;28;20037;-72
2022/02/23 06:36:30;;;;;;;31.17;2.65;;;4.40;99.90;;;;;;5064733;28;20052;-71
2022/02/23 06:38:56;;;;;;;14.52;2.85;;;4.40;99.90;;;;;;5072047;28;20036;-73
2022/02/23 06:41:24;;;;;;;9.77;2.22;;;4.40;99.90;;;;;;5084525;28;20028;-72
2022/02/23 06:43:51;;;;;;;20.27;4.20;;;4.40;99.90;;;;;;5084840;28;20056;-71
2022/02/23 06:46:17;;;;;;;15.38;2.78;;;4.40;99.90;;;;;;5084248;28;20028;-73
2022/02/23 06:48:43;;;;;;;10.70;1.77;;;4.50;99.90;;;;;;5083048;28;20433;-71
2022/02/23 06:51:09;;;;;;;10.45;1.95;;;4.40;99.90;;;;;;5084360;28;20025;-72
2022/02/23 06:53:35;;;;;;;13.68;1.95;;;4.50;99.90;;;;;;5083057;28;20511;-72
2022/02/23 06:56:02;;;;;;;15.65;3.15;;;4.40;99.90;;;;;;5084327;28;20082;-75
2022/02/23 06:58:28;;;;;;;4.47;1.30;;;4.50;99.90;;;;;;5084693;28;20396;-71
2022/02/23 07:00:54;;;;;;;9.02;3.42;;;4.50;99.90;;;;;;5082973;28;20448;-72
2022/02/23 07:03:20;;;;;;;14.00;3.17;;;4.50;99.90;;;;;;5082969;28;20093;-73
2022/02/23 07:05:46;;;;;;;19.05;2.83;;;4.50;99.90;;;;;;5084527;28;20108;-73
2022/02/23 07:08:12;;;;;;;12.05;2.60;;;4.60;99.90;;;;;;5084014;28;20107;-72
2022/02/23 07:10:38;;;;;;;13.05;3.17;;;4.60;99.90;;;;;;5084020;28;20029;-73
2022/02/23 07:13:06;;;;;;;7.60;2.13;;;4.70;99.90;;;;;;5077125;28;20048;-73
2022/02/23 07:15:36;;;;;;;12.52;2.63;;;4.70;99.90;;;;;;5063484;28;20047;-75
2022/02/23 07:18:16;;;;;;;9.73;2.30;;;4.70;99.90;;;;;;5060873;28;20061;-76
2022/02/23 07:20:42;;;;;;;7.80;2.42;;;4.80;99.90;;;;;;5060928;28;20033;-75
2022/02/23 07:23:07;;;;;;;23.35;2.65;;;4.80;99.90;;;;;;5067329;28;20028;-75
2022/02/23 07:25:34;;;;;;;11.13;2.53;;;4.80;99.90;;;;;;5065781;28;20489;-77
2022/02/23 07:28:05;;;;;;;12.93;1.65;;;5.00;99.90;;;;;;5065944;28;20149;-76
2022/02/23 07:30:31;;;;;;;5.53;1.75;;;5.00;99.90;;;;;;5077964;28;20028;-75
2022/02/23 07:32:57;;;;;;;10.85;2.35;;;5.00;99.90;;;;;;5074126;28;20049;-76
2022/02/23 07:35:23;;;;;;;12.95;2.97;;;5.10;99.90;;;;;;5066267;28;20393;-74
2022/02/23 07:37:52;;;;;;;10.38;2.13;;;5.20;99.90;;;;;;5067987;28;20029;-73
2022/02/23 07:40:23;;;;;;;13.60;3.28;;;5.40;99.90;;;;;;5056491;28;20758;-72
2022/02/23 07:43:07;;;;;;;;;;;;;;;;;;;;;
2022/02/23 07:45:36;;;;;;;17.60;3.30;;;5.70;99.90;;;;;;5055684;28;20081;-73
2022/02/23 07:48:04;;;;;;;12.25;2.13;;;5.80;99.90;;;;;;5047605;28;20090;-77
2022/02/23 07:50:32;;;;;;;15.48;1.95;;;6.00;99.90;;;;;;5047607;28;20044;-73
2022/02/23 07:52:58;;;;;;;12.38;2.10;;;6.10;99.90;;;;;;5059815;28;20041;-75
2022/02/23 07:55:25;;;;;;;21.17;3.00;;;6.20;99.90;;;;;;5046549;28;20778;-74
2022/02/23 07:57:51;;;;;;;8.07;2.35;;;6.20;99.90;;;;;;5065210;28;20044;-74
2022/02/23 08:00:27;;;;;;;18.55;3.08;;;6.30;99.90;;;;;;5060596;28;20033;-71
2022/02/23 08:02:53;;;;;;;13.65;2.17;;;6.40;99.90;;;;;;5056835;28;20024;-77
2022/02/23 08:05:18;;;;;;;10.25;2.30;;;6.50;99.90;;;;;;5086429;28;20067;-75
2022/02/23 08:07:44;;;;;;;10.13;2.40;;;6.60;99.90;;;;;;5067003;28;20040;-74
2022/02/23 08:10:10;;;;;;;8.70;2.08;;;6.70;99.90;;;;;;5061789;28;20021;-73
2022/02/23 08:12:41;;;;;;;3.78;1.90;;;6.80;99.90;;;;;;5046883;28;20374;-74
2022/02/23 08:20:41;;;;;;;13.02;2.38;;;7.20;99.90;;;;;;5070987;28;20039;-74
2022/02/23 08:23:17;;;;;;;13.98;3.13;;;7.40;99.90;;;;;;5083274;28;20078;-74
2022/02/23 08:25:43;;;;;;;6.85;1.77;;;7.40;99.90;;;;;;5084538;28;20035;-74
2022/02/23 08:28:09;;;;;;;10.68;2.20;;;7.50;99.90;;;;;;5061602;28;20087;-73
2022/02/23 08:30:35;;;;;;;5.18;1.30;;;7.60;99.90;;;;;;5061951;28;20116;-75
2022/02/23 08:33:03;;;;;;;8.80;2.58;;;7.70;99.90;;;;;;5050829;28;20064;-75
2022/02/23 08:35:33;;;;;;;11.95;1.88;;;7.80;99.90;;;;;;5074469;28;20064;-74
2022/02/23 08:37:59;;;;;;;10.90;2.50;;;7.80;99.90;;;;;;5083961;28;20054;-74
2022/02/23 08:40:58;;;;;;;8.88;2.88;;;7.80;99.90;;;;;;5086554;28;20032;-77
2022/02/23 08:43:25;;;;;;;10.00;1.55;;;8.00;99.90;;;;;;5085293;28;20055;-77
2022/02/23 08:45:50;;;;;;;10.65;1.50;;;8.20;99.90;;;;;;5086166;28;20025;-74
2022/02/23 08:48:21;;;;;;;9.15;2.25;;;8.40;99.90;;;;;;5086420;28;20066;-74
2022/02/23 08:50:47;;;;;;;7.68;2.38;;;8.50;99.90;;;;;;5084179;28;20028;-74
2022/02/23 08:53:12;;;;;;;4.60;1.70;;;8.60;99.90;;;;;;5078795;28;20037;-74
2022/02/23 08:55:38;;;;;;;3.35;1.45;;;8.70;99.90;;;;;;5064406;28;20112;-73
2022/02/23 08:58:05;;;;;;;29.83;2.60;;;8.70;99.90;;;;;;5060052;28;20465;-73
2022/02/23 09:00:31;;;;;;;7.85;1.88;;;8.80;99.90;;;;;;5046133;28;20021;-76
2022/02/23 09:02:57;;;;;;;4.18;1.65;;;8.80;99.90;;;;;;5046138;28;20072;-74
2022/02/23 09:05:22;;;;;;;14.93;1.40;;;8.80;99.90;;;;;;5047886;28;20025;-75
2022/02/23 09:07:48;;;;;;;17.10;2.33;;;9.00;99.90;;;;;;5063969;28;20449;-74
2022/02/23 09:10:14;;;;;;;8.95;2.35;;;9.10;99.90;;;;;;5063836;28;20040;-73
2022/02/23 09:12:43;;;;;;;6.38;1.38;;;9.10;99.90;;;;;;5064168;28;20052;-76
2022/02/23 09:15:11;;;;;;;11.65;1.63;;;9.20;99.90;;;;;;5063848;28;20051;-74
2022/02/23 09:17:37;;;;;;;7.43;1.80;;;9.30;99.90;;;;;;5056221;28;20032;-74
2022/02/23 09:20:05;;;;;;;17.48;2.35;;;9.40;99.90;;;;;;5063207;28;20033;-76
2022/02/23 09:22:31;;;;;;;11.88;2.08;;;9.40;99.90;;;;;;5062562;28;20024;-76
2022/02/23 09:25:00;;;;;;;7.93;1.95;;;9.50;99.90;;;;;;5063334;28;20044;-75
2022/02/23 09:27:34;;;;;;;9.35;2.92;;;9.50;99.90;;;;;;5063333;28;20033;-76
2022/02/23 09:30:01;;;;;;;9.70;2.10;;;9.60;99.90;;;;;;5065319;28;20025;-75
2022/02/23 09:32:27;;;;;;;6.43;1.92;;;9.70;99.90;;;;;;5062361;28;20179;-74
2022/02/23 09:34:53;;;;;;;2.88;1.45;;;9.60;99.90;;;;;;5065504;28;20044;-74
2022/02/23 09:37:19;;;;;;;5.13;1.85;;;9.60;99.90;;;;;;5063747;28;20021;-72
2022/02/23 09:39:44;;;;;;;4.80;1.58;;;9.40;99.90;;;;;;5061400;28;20031;-71
2022/02/23 09:42:11;;;;;;;11.63;1.90;;;9.40;99.90;;;;;;5071232;28;20111;-72
2022/02/23 09:44:45;;;;;;;5.10;1.63;;;9.40;99.90;;;;;;5065575;28;20025;-73
2022/02/23 09:47:11;;;;;;;;;;;9.60;99.90;;;;;;5065246;28;20060;-71
2022/02/23 09:49:37;;;;;;;5.28;2.08;;;9.60;99.90;;;;;;5065195;28;19967;-73
2022/02/23 09:52:04;;;;;;;6.53;1.85;;;9.80;99.90;;;;;;5057189;28;20044;-72
2022/02/23 09:54:31;;;;;;;8.02;2.20;;;9.70;99.90;;;;;;5050314;28;20018;-73
2022/02/23 09:57:00;;;;;;;15.00;1.90;;;9.70;99.90;;;;;;5054007;28;20029;-73
2022/02/23 09:59:27;;;;;;;5.40;1.80;;;9.90;99.90;;;;;;5052449;28;20084;-74
2022/02/23 10:01:54;;;;;;;19.00;3.25;;;10.10;99.90;;;;;;5053368;28;20409;-72
2022/02/23 10:04:29;;;;;;;6.80;2.00;;;10.30;99.90;;;;;;5056581;28;20028;-76
2022/02/23 10:07:08;;;;;;;7.18;2.10;;;10.60;99.90;;;;;;5041827;28;20022;-75
2022/02/23 10:09:52;;;;;;;3.90;1.50;;;10.90;99.90;;;;;;5044537;28;20120;-72
2022/02/23 10:12:26;;;;;;;12.00;2.22;;;11.00;99.90;;;;;;5056282;28;20037;-74
2022/02/23 10:15:12;;;;;;;9.68;1.98;;;11.20;99.90;;;;;;5057194;28;20448;-74
2022/02/23 10:17:47;;;;;;;13.73;2.38;;;11.20;99.90;;;;;;5064513;28;20029;-73
2022/02/23 10:20:37;;;;;;;4.88;1.50;;;11.20;99.90;;;;;;5049379;28;20039;-73
2022/02/23 10:23:23;;;;;;;5.20;1.17;;;11.40;99.90;;;;;;5046186;28;20406;-73
2022/02/23 10:26:02;;;;;;;4.55;1.38;;;11.20;99.90;;;;;;5060225;28;20047;-74
2022/02/23 10:28:35;;;;;;;3.65;1.13;;;11.00;99.90;;;;;;5061751;28;20036;-75
2022/02/23 10:31:19;;;;;;;14.90;1.48;;;10.90;99.90;;;;;;5050362;28;20025;-71
2022/02/23 10:33:45;;;;;;;6.10;1.00;;;10.90;99.90;;;;;;5056032;28;20064;-73
2022/02/23 10:36:15;;;;;;;4.30;0.47;;;11.10;99.90;;;;;;5064114;28;20260;-74
2022/02/23 10:38:49;;;;;;;6.88;1.50;;;11.10;99.90;;;;;;5064543;28;20127;-74
2022/02/23 10:41:31;;;;;;;5.35;1.42;;;10.80;99.90;;;;;;5064033;28;20060;-73
2022/02/23 10:43:59;;;;;;;5.80;1.10;;;11.00;99.90;;;;;;5063192;28;20025;-75
2022/02/23 10:46:31;;;;;;;4.60;1.45;;;11.20;99.90;;;;;;5075883;28;20028;-73
2022/02/23 10:48:59;;;;;;;8.48;1.00;;;11.40;99.90;;;;;;5063974;28;20033;-74
2022/02/23 10:51:36;;;;;;;6.95;1.25;;;11.50;99.90;;;;;;5068555;28;20024;-74
2022/02/23 10:54:08;;;;;;;1.35;0.63;;;11.90;99.90;;;;;;5067206;28;20045;-75
2022/02/23 10:56:35;;;;;;;5.97;1.00;;;12.00;99.90;;;;;;5065104;28;20021;-73
2022/02/23 10:59:04;;;;;;;7.53;0.90;;;12.30;99.90;;;;;;5053155;28;20039;-74
2022/02/23 11:01:32;;;;;;;4.93;0.77;;;12.50;99.90;;;;;;5064662;28;20064;-77
2022/02/23 11:03:58;;;;;;;3.63;0.95;;;12.70;99.90;;;;;;5067021;28;20017;-77
2022/02/23 11:06:26;;;;;;;2.22;0.55;;;13.00;99.90;;;;;;5067435;28;20108;-75
2022/02/23 11:08:54;;;;;;;4.22;1.10;;;13.20;99.90;;;;;;5066982;28;20398;-75
2022/02/23 11:11:22;;;;;;;4.93;1.15;;;13.20;99.90;;;;;;5065848;28;20028;-74
2022/02/23 11:13:48;;;;;;;11.05;1.23;;;13.40;99.90;;;;;;5067466;28;20037;-75
2022/02/23 11:16:17;;;;;;;1.05;0.50;;;13.50;99.90;;;;;;5065890;28;20029;-75
2022/02/23 11:18:45;;;;;;;4.55;1.05;;;13.40;99.90;;;;;;5067115;28;20392;-77
2022/02/23 11:21:13;;;;;;;8.63;1.00;;;13.40;99.90;;;;;;5069797;28;20113;-75
2022/02/23 11:23:44;;;;;;;4.60;1.10;;;13.70;99.90;;;;;;5065608;28;20032;-74
2022/02/23 11:26:13;;;;;;;12.20;0.82;;;13.80;99.90;;;;;;5066821;28;20112;-76
2022/02/23 11:28:57;;;;;;;1.40;0.22;;;13.90;99.90;;;;;;5067244;28;20081;-76
2022/02/23 11:31:25;;;;;;;5.68;0.80;;;13.80;99.90;;;;;;5067201;28;20033;-75
2022/02/23 11:34:00;;;;;;;1.05;0.60;;;13.70;99.90;;;;;;5066948;28;20139;-75
2022/02/23 11:36:42;;;;;;;2.85;0.45;;;13.90;99.90;;;;;;5065637;28;20120;-75
2022/02/23 11:39:18;;;;;;;1.85;0.52;;;14.20;99.90;;;;;;5056171;28;20036;-76
2022/02/23 11:41:52;;;;;;;0.63;0.15;;;14.10;99.90;;;;;;5059011;28;20389;-74
2022/02/23 11:44:25;;;;;;;1.30;0.45;;;14.20;99.90;;;;;;5056994;28;20022;-74
2022/02/23 11:46:50;;;;;;;4.18;0.90;;;14.00;99.90;;;;;;5059219;28;20071;-75
2022/02/23 11:49:17;;;;;;;2.38;0.88;;;14.50;99.90;;;;;;5052311;28;20457;-75
2022/02/23 11:51:44;;;;;;;1.23;0.60;;;14.80;99.90;;;;;;5048989;28;20029;-73
2022/02/23 11:54:13;;;;;;;1.42;0.50;;;14.90;99.90;;;;;;5066983;28;20040;-69
2022/02/23 11:56:47;;;;;;;3.35;0.50;;;14.90;99.90;;;;;;5066802;28;20085;-73
2022/02/23 11:59:48;;;;;;;3.05;0.52;;;14.60;99.90;;;;;;5066276;28;20052;-74
2022/02/23 12:02:14;;;;;;;1.63;0.52;;;14.50;99.90;;;;;;5060468;28;20028;-75
2022/02/23 12:04:59;;;;;;;3.42;0.90;;;14.30;99.90;;;;;;5066320;28;20028;-72
2022/02/23 12:07:26;;;;;;;3.75;0.98;;;14.30;99.90;;;;;;5065009;28;20025;-75
2022/02/23 12:09:56;;;;;;;0.77;0.43;;;14.40;99.90;;;;;;5047422;28;20022;-75
2022/02/23 12:12:31;;;;;;;0.70;0.38;;;15.00;99.90;;;;;;5062084;28;20446;-70
2022/02/23 12:15:02;;;;;;;1.15;0.52;;;15.20;99.90;;;;;;5067165;28;20033;-74
2022/02/23 12:17:47;;;;;;;2.53;0.57;;;15.30;99.90;;;;;;5065660;28;20036;-74
2022/02/23 12:20:34;;;;;;;2.45;1.05;;;15.40;99.90;;;;;;5066333;28;20112;-71
2022/02/23 12:23:08;;;;;;;2.22;0.85;;;15.60;99.90;;;;;;5066951;28;20033;-72
2022/02/23 12:26:10;;;;;;;3.28;0.77;;;15.90;99.90;;;;;;5065095;28;20701;-75
2022/02/23 12:28:38;;;;;;;2.00;0.52;;;15.90;99.90;;;;;;5059517;28;20028;-74
2022/02/23 12:31:09;;;;;;;3.35;1.13;;;16.00;99.90;;;;;;5049612;28;20028;-74
2022/02/23 12:33:37;;;;;;;1.88;0.55;;;16.20;99.90;;;;;;5045717;28;20049;-73
2022/02/23 12:36:06;;;;;;;4.78;0.52;;;16.30;99.90;;;;;;5044818;28;20064;-72
2022/02/23 12:38:36;;;;;;;7.18;0.80;;;16.30;99.90;;;;;;5049525;28;20040;-75
2022/02/23 12:41:10;;;;;;;2.05;0.50;;;16.40;99.90;;;;;;5045071;28;20083;-72
2022/02/23 12:43:38;;;;;;;0.73;0.30;;;16.10;99.90;;;;;;5054391;28;20025;-73
2022/02/23 12:46:05;;;;;;;0.60;0.30;;;16.10;99.90;;;;;;5045379;28;20040;-74
2022/02/23 12:48:34;;;;;;;1.30;0.35;;;16.10;99.90;;;;;;5045685;28;20022;-74
2022/02/23 12:51:10;;;;;;;1.55;0.88;;;15.70;99.90;;;;;;5046542;28;20057;-75
2022/02/23 12:53:45;;;;;;;5.95;0.93;;;15.40;99.90;;;;;;5045555;28;20034;-74
2022/02/23 12:56:23;;;;;;;4.60;0.70;;;15.40;99.90;;;;;;5045896;28;20381;-72
2022/02/23 12:59:01;;;;;;;2.75;0.90;;;15.00;99.90;;;;;;5045076;28;20101;-72
2022/02/23 13:01:31;;;;;;;2.25;0.75;;;14.50;99.90;;;;;;5044735;28;20107;-71